Data Trawler - Search Events

Please login if you have access to particular applications.
Username:
Password:

Search for events by voyage, equipment, action or within comments.

Event count for each voyage, equipment or action is shown in ().

Voyage(s)
Elog Set(s)
Equipment(s)
Action
Search for - within subject, event identifier, comments etc.(case insensitive)
Highlight matches

Events ordered by start time:- Click on column header to sort. Use link on 'When' to see full details. Use the CSV button at the bottom to export data.

Survey When (UTC) LatitudeLongitude InstrumentIdentifierActionLogSubject / Comments
IN2015_C02 2015-11-30 18:04 [view ] -36.3893 136.1278 SST [view] outage in2015_c02 SST sensor was not sending data- it was restarted and came good
IN2015_E03 2015-04-16 10:14 [view ] -42.9750 147.3805 SST Radiometer [view] Start in2015_e03
IN2015_E04 2015-04-25 10:35 [view ] -43.0923 147.4368 SST Radiometer [view] Start in2015_e04 SST Radiometer power on and start
IN2015_E04 2015-04-28 05:04 [view ] -43.0436 147.3873 SST Radiometer [view] Stop in2015_e04
IN2015_E05 2015-04-30 11:29 [view ] -43.0286 147.3847 SST Radiometer [view] Start in2015_e05
IN2015_E05 2015-05-04 22:20 [view ] SST Radiometer [view] Steve Thomas Stop in2015_e05 SST Radiometer shutdown - end of voyage
IN2016_T01 2016-07-02 04:01 [view ] -21.5213 170.6122 SST Radiometer [view] Deployed in2016_t01
IN2016_T01 2016-07-03 02:10 [view ] -23.1060 166.7378 SST Radiometer [view] Deployed in2016_t01 About to Deploy radiometer
IN2016_T01 2016-07-03 02:10 [view ] -23.1060 166.7378 SST Radiometer [view] Deployed in2016_t01 Deployed radiometer
IN2016_T01 2016-07-05 04:39 [view ] -20.3726 161.6354 SST Radiometer [view] in water in2016_t01 Radiometer in water
IN2016_T01 2016-07-05 22:41 [view ] -20.0077 160.8925 SST Radiometer [view] Deployed in2016_t01 Deploy radiometer
IN2016_T01 2016-07-05 23:00 [view ] -20.0077 160.8925 SST Radiometer [view] Retrieved in2016_t01 Retrieved radiometer
IN2016_T01 2016-07-07 00:13 [view ] -21.9627 159.6417 SST Radiometer [view] Retrieved in2016_t01 Radiometer on deck Radiometer deployed just before Bopak
IN2016_T01 2016-07-07 03:28 [view ] -22.0673 159.1397 SST Radiometer [view] in water in2016_t01 Radiometer in water
IN2016_T01 2016-07-07 03:44 [view ] -22.0668 159.1388 SST Radiometer [view] Retrieved in2016_t01 Radiometer on deck
IN2016_T01 2016-07-07 23:45 [view ] -24.8600 156.7682 SST Radiometer [view] Deployed in2016_t01 Radiometer in water
IN2016_T01 2016-07-08 00:04 [view ] -24.8600 156.7682 SST Radiometer [view] Retrieved in2016_t01 Radiometer on deck
IN2016_T01 2016-07-09 03:37 [view ] -28.6378 155.8823 SST Radiometer [view] Deployed in2016_t01 Radiometer in water
IN2016_T01 2016-07-09 04:18 [view ] -28.6378 155.8766 SST Radiometer [view] on deck in2016_t01 HyperPro on deck - moving off on transit
IN2016_T01 2016-07-09 21:46 [view ] -31.2430 155.3915 SST Radiometer [view] Deployed in2016_t01 Hyper pro in water
IN2016_T01 2016-07-09 22:17 [view ] -31.2430 155.3915 SST Radiometer [view] Retrieved in2016_t01 Hyper pro on deck
IN2016_T01 2016-07-10 03:14 [view ] -32.0618 155.0398 SST Radiometer [view] Deployed in2016_t01 Hyper pro in water
IN2016_T01 2016-07-11 00:17 [view ] -39.0235 149.9098 SST Radiometer [view] Retrieved in2016_t01 HyperPro out of water
IN2016_T01 2016-07-11 04:56 [view ] -35.7755 151.7664 SST Radiometer [view] Deployed in2016_t01 HyperPro deployed and retreived.
IN2016_T01 2016-07-11 23:47 [view ] -39.0233 149.9128 SST Radiometer [view] Deployed in2016_t01 HyperPro in water
IN2016_T01 2016-07-12 02:47 [view ] -39.4317 149.6010 SST Radiometer [view] Deployed in2016_t01 HyperPro in water
IN2016_T01 2016-07-12 03:28 [view ] -39.4303 149.6008 SST Radiometer [view] Retrieved in2016_t01 HyperPro out of water
IN2016_T01 2016-07-12 04:17 [view ] -39.5433 149.5145 SST Radiometer [view] At site in2016_t01 At Hyperpro site.
IN2016_T01 2016-07-12 05:16 [view ] -39.5486 149.5095 SST Radiometer [view] Abort in2016_t01 Hyperpro aborted after 1 full and 1 partial cast due to weather. Moving away from site.
IN2016_V02 2016-04-15 22:07 [view ] -42.9107 147.3712 SST Radiometer [view] Stop in2016_v02 End of voyage - SST Radiometer
IN2017_T01 2017-09-24 21:34 [view ] -33.1139 152.0043 SST [view] Fault in2017_t01 SST Stopped responing.
IN2017_T01 2017-09-24 22:49 [view ] -32.9199 152.1678 SST [view] restarted in2017_t01 SST restarted broadcasting after reset of comms chains
IN2017_V01 2017-01-16 03:21 [view ] -48.3207 143.1352 SST Radiometer [view] Cleaned in2017_v01 SST Radiometer rain sensor cleaned Instrument was showing constant rain for last 18 hours. Possibly caused by high humidity and rain. Cleaned sensor to be sure
IN2018_T01 2018-04-14 04:42 [view ] -26.7275 153.2323 ISAR [view] Shutdown in2018_t01 Removed for calibration
IN2018_V01 2018-01-10 22:45 [view ] SST Radiometer [view] Start in2018_v01
IN2018_V01 2018-01-23 01:38 [view ] -54.5848 141.2955 SST Radiometer [view] maintenance in2018_v01 Reset SST to verify shutter operation.
IN2018_V01 2018-02-09 02:00 [view ] -62.2146 138.7853 SST Radiometer [view] maintenance in2018_v01 Tested shutter and restarted.
IN2018_V01 2018-02-21 19:04 [view ] -43.0353 147.3888 SST [view] Stop in2018_v01 SST SBE 38 stop.
IN2018_V01 2018-02-21 19:47 [view ] -42.9795 147.3763 SST Radiometer [view] Stop in2018_v01 SST Radiometer stop.
IN2018_V06 2018-11-22 23:01 [view ] -43.1085 147.4372 SST Radiometer [view] down in2018_v06 SST Radiometer not on voyage
IN2018_V07 2018-08-21 20:28 [view ] -47.1202 142.4530 SST Radiometer [view] restarted in2018_v07 restarted techsas 1 new underway seawater driver while debugging SST radiometer output
IN2019_V02 2019-03-20 21:48 [view ] -46.8428 142.6967 SST Radiometer [view] Stop in2019_v02 SST removed for repair.
IN2019_V02 2019-03-21 00:08 [view ] -46.8340 142.3972 SST Radiometer [view] Maintenance in2019_v02 SST installed SST re-installed, power up and started testing to confirm before releasing data.
IN2019_V02 2019-03-21 00:55 [view ] -46.8600 142.2020 SST Radiometer [view] Start in2019_v02 SST restarted outputting raw data
IN2019_V03 2019-06-13 11:18 [view ] -31.8287 115.2795 SST Radiometer [view] Stop in2019_v03 Shut down for dry dock
IN2019_V04 2019-08-09 08:20 [view ] -20.9522 154.4960 SST Radiometer [view] Adjusted in2019_v04
IN2019_V04 2019-08-12 07:45 [view ] -19.7008 154.6597 SST Radiometer [view] Stop in2019_v04 SST Radiometer removed from bridge wing for internal adjustments
IN2019_V04 2019-08-12 11:03 [view ] -19.6888 154.5902 SST Radiometer [view] Start in2019_v04 SST Radiometer restored to bridge wing and restarted
IN2019_V05 2019-09-09 03:30 [view ] -26.8857 153.1713 SST Radiometer [view] Start in2019_v05
IN2020_V06 2020-10-17 05:07 [view ] -54.8130 159.0223 SST Radiometer [view] Fault in2020_v06 Shutter stuck open Shutter travelled past the final endstop when opening following a rain event. Manually closed and retried automatic open. Second attempt had the same result with the shutter being stuck open and the equipmnet not outputting any data. Believed faulty trigger/hall effect sensro on the final open position. Shutter manualy shut and system turned off.
IN2020_V06 2020-10-17 05:10 [view ] -54.8083 159.0275 SST Radiometer [view] Stop in2020_v06 Stopped due to fault
IN2021_T01 2021-06-15 16:50 [view ] -15.7728 146.3892 SST Radiometer [view] Start in2021_t01 Turned on Not sure why it was off
IN2021_T01 2021-06-22 22:35 [view ] -12.2833 130.6132 SST Radiometer [view] Stop in2021_t01 shutter closed, switched off for port
IN2021_V04 2021-06-30 03:13 [view ] -12.2878 130.4370 SST Radiometer [view] Maintenance in2021_v04 Shutter check
IN2021_V04 2021-07-28 21:51 [view ] -43.1463 147.4890 SST Radiometer [view] Stop in2021_v04 Switched to "Raining" then "Off".
IN2022_V05 2022-05-28 01:22 [view ] -42.8908 147.3588 SST Radiometer [view] Event for SST radiometer
IN2022_V05 2022-05-31 14:14 [view ] -34.7867 151.3313 SST Radiometer [view] Event for SST radiometer Shutter auto close during severe winds causing sea spray on rain sensor
IN2022_V05 2022-06-01 01:14 [view ] -34.8105 150.8125 SST Radiometer [view] Event for SST radiometer Shutter re-opened
IN2022_V09 2022-11-19 03:39 [view ] -32.2003 115.7016 SST Radiometer [view] Event for SST radiometer currently raining
IN2022_V09 2022-11-19 20:53 [view ] -29.7979 114.2854 SST Radiometer [view] Event for SST radiometer corrected code fault in config file. shutter was not opening
IN2022_V09 2022-12-05 20:55 [view ] -21.7324 113.8464 SST Radiometer [view] Event for SST radiometer went down during UPS/power issue debugging. restarted

Save this list as

NCMI Information and Data Centre  »  Applications  »  Data Trawler